createdAt,value
2023-01-19T19:29:13.599Z,-6.20
2023-01-19T19:31:46.228Z,-6.20
2023-01-19T19:34:17.713Z,-6.10
2023-01-19T19:36:49.523Z,-6.10
2023-01-19T19:39:23.580Z,-6.00
2023-01-19T19:41:56.260Z,-6.00
2023-01-19T19:44:28.003Z,-6.00
2023-01-19T19:46:59.880Z,-6.00
2023-01-19T19:49:31.525Z,-6.00
2023-01-19T19:52:02.921Z,-6.10
2023-01-19T19:57:14.127Z,-6.10
2023-01-19T19:59:45.738Z,-6.00
2023-01-19T20:02:17.267Z,-6.00
2023-01-19T20:04:49.025Z,-6.00
2023-01-19T20:07:20.702Z,-6.00
2023-01-19T20:10:00.129Z,-6.00
2023-01-19T20:12:33.443Z,-6.00
2023-01-19T20:15:08.470Z,-6.00
2023-01-19T20:17:40.209Z,-6.00
2023-01-19T20:20:14.810Z,-6.00
2023-01-19T20:22:46.492Z,-5.90
2023-01-19T20:25:18.045Z,-5.90
2023-01-19T20:27:52.590Z,-6.00
2023-01-19T20:30:24.495Z,-5.90
2023-01-19T20:32:56.703Z,-5.90
2023-01-19T20:35:28.231Z,-6.00
2023-01-19T20:37:59.929Z,-6.10
2023-01-19T20:40:31.594Z,-6.20
2023-01-19T20:43:03.118Z,-6.20
2023-01-19T20:45:45.254Z,-6.10
2023-01-19T20:48:16.798Z,-6.00
2023-01-19T20:50:48.171Z,-5.90
2023-01-19T20:53:19.697Z,-5.70
2023-01-19T20:55:51.040Z,-5.60
2023-01-19T20:58:23.072Z,-5.60
2023-01-19T21:00:57.176Z,-5.50
2023-01-19T21:03:29.839Z,-5.60
2023-01-19T21:06:01.231Z,-5.80
2023-01-19T21:08:33.397Z,-5.90
2023-01-19T21:11:05.786Z,-6.00
2023-01-19T21:13:38.241Z,-6.10
2023-01-19T21:16:10.657Z,-6.20
2023-01-19T21:18:42.092Z,-6.20
2023-01-19T21:21:29.076Z,-6.20
2023-01-19T21:23:46.918Z,-6.20
2023-01-19T21:26:18.772Z,-6.20
2023-01-19T21:28:50.717Z,-6.20
2023-01-19T21:31:27.105Z,-6.20
2023-01-19T21:33:57.218Z,-6.30
2023-01-19T21:36:28.982Z,-6.30
2023-01-19T21:39:01.151Z,-6.30
2023-01-19T21:41:38.581Z,-6.40
2023-01-19T21:44:11.015Z,-6.40
2023-01-19T21:47:15.216Z,-6.40
2023-01-19T21:49:46.752Z,-6.40
2023-01-19T21:52:18.892Z,-6.40
2023-01-19T21:54:50.501Z,-6.40
2023-01-19T21:57:21.941Z,-6.50
2023-01-19T21:59:54.396Z,-6.40
2023-01-19T22:02:37.891Z,-6.40
2023-01-19T22:04:58.816Z,-6.40
2023-01-19T22:07:30.329Z,-6.40
2023-01-19T22:10:01.964Z,-6.40
2023-01-19T22:12:33.885Z,-6.40
2023-01-19T22:15:06.419Z,-6.50
2023-01-19T22:17:37.971Z,-6.60
2023-01-19T22:20:11.876Z,-6.70
2023-01-19T22:22:43.437Z,-6.70
2023-01-19T22:25:15.423Z,-6.70
2023-01-19T22:27:47.212Z,-6.70
2023-01-19T22:30:20.323Z,-6.70
2023-01-19T22:32:53.203Z,-6.60
2023-01-19T22:35:24.847Z,-6.60
2023-01-19T22:37:56.416Z,-6.60
2023-01-19T22:40:28.675Z,-6.50
2023-01-19T22:43:00.135Z,-6.50
2023-01-19T22:45:31.575Z,-6.50
2023-01-19T22:48:03.182Z,-6.50
2023-01-19T22:50:35.979Z,-6.50
2023-01-19T22:53:07.422Z,-6.50
2023-01-19T22:55:38.879Z,-6.40
2023-01-19T22:58:10.350Z,-6.40
2023-01-19T23:00:41.759Z,-6.40
2023-01-19T23:03:13.398Z,-6.50
2023-01-19T23:05:44.767Z,-6.60
2023-01-19T23:08:16.223Z,-6.60
2023-01-19T23:13:33.161Z,-6.70
2023-01-19T23:16:05.865Z,-6.70
2023-01-19T23:18:37.593Z,-6.80
2023-01-19T23:21:11.486Z,-6.90
2023-01-19T23:23:43.474Z,-7.00
2023-01-19T23:26:16.713Z,-7.00
2023-01-19T23:28:49.314Z,-7.00
2023-01-19T23:31:22.964Z,-7.10
2023-01-19T23:33:56.742Z,-7.00
2023-01-19T23:36:31.099Z,-7.00
2023-01-19T23:39:04.260Z,-7.00
2023-01-19T23:41:35.778Z,-7.00
2023-01-19T23:44:07.660Z,-7.00
2023-01-19T23:46:40.657Z,-7.00
2023-01-19T23:49:12.231Z,-7.00
2023-01-19T23:51:43.625Z,-7.00
2023-01-19T23:54:15.084Z,-7.00
2023-01-19T23:56:46.475Z,-6.90
2023-01-19T23:59:18.296Z,-7.00
